Date,TemperatureHighF,TemperatureAvgF,TemperatureLowF,DewpointHighF,DewpointAvgF,DewpointLowF,HumidityHigh,HumidityAvg,HumidityLow,PressureMaxIn,PressureMinIn,WindSpeedMaxMPH,WindSpeedAvgMPH,GustSpeedMaxMPH,PrecipitationSumIn
2013-2-1,64,52,44,29,23,14,48,34,21,0.00,40.00,3,2,11,0.00
2013-2-2,60,51,46,28,23,11,46,33,24,0.00,40.00,6,2,13,0.00
2013-2-3,62,50,44,30,17,5,49,27,17,0.00,40.00,6,2,12,0.00
2013-2-4,64,52,45,31,18,0,56,29,13,0.00,40.00,4,2,14,0.00
2013-2-5,52,44,34,38,26,14,100,54,31,0.00,40.00,7,4,15,0.00
2013-2-6,55,41,33,32,18,9,91,42,17,0.00,40.00,6,3,15,0.00
2013-2-7,35,32,29,33,32,27,100,97,72,0.00,40.00,11,6,23,0.00
2013-2-8,45,30,25,29,19,10,100,66,39,0.00,40.00,9,3,27,0.26
2013-2-12,54,45,38,27,19,6,54,36,25,0.00,40.00,4,2,14,0.00
2013-2-13,65,50,39,27,18,10,41,29,16,0.00,40.00,5,3,13,0.00
2013-2-14,67,55,43,22,16,8,34,23,13,0.00,40.00,9,5,22,0.00
2013-2-15,66,56,48,25,16,4,34,20,14,0.00,40.00,7,3,20,0.00
2013-2-16,62,52,42,27,17,1,46,27,13,0.00,40.00,4,2,12,0.00
2013-2-17,60,48,40,25,21,15,46,35,18,0.00,40.00,5,2,14,0.00
2013-2-18,54,43,34,38,27,14,100,57,30,0.00,40.00,11,6,26,0.00
2013-2-19,36,29,23,36,29,23,100,100,100,0.00,40.00,192,20,178,0.00
2013-2-20,54,33,23,28,23,17,100,72,26,0.00,40.00,167,22,195,0.41
2013-2-21,49,36,29,24,16,8,78,48,19,0.00,40.00,5,2,23,0.03
2013-2-22,56,43,34,25,17,9,52,35,23,0.00,40.00,6,3,20,0.01
2013-2-23,45,37,30,37,22,4,100,61,27,0.00,40.00,15,4,32,0.04
2013-2-24,58,42,29,15,8,-1,37,25,15,0.00,40.00,3,2,10,0.01
2013-2-25,53,42,34,22,16,10,44,36,23,0.00,40.00,7,3,14,0.00
2013-2-26,58,45,33,14,1,-11,42,18,10,0.00,40.00,7,3,23,0.00
2013-2-27,60,49,39,19,9,-11,38,22,10,0.00,40.00,4,2,15,0.00
2013-2-28,62,51,41,30,23,8,50,35,24,0.00,40.00,3,2,12,0.00